Time;durP1;ratioP1;P1;durP2;ratioP2;P2;SDS_P1;SDS_P2;PMS_P1;PMS_P2;Temp;Humidity;BMP_temperature;BMP_pressure;BME280_temperature;BME280_humidity;BME280_pressure;Samples;Min_cycle;Max_cycle;Signal;HPM_P1;HPM_P2
2023/10/03 00:00:31;;;;;;;67.50;19.37;;;12.70;51.70;;;;;;5020798;28;46368;-80
2023/10/03 00:02:58;;;;;;;53.10;20.10;;;12.70;51.60;;;;;;5020428;28;46419;-79
2023/10/03 00:05:29;;;;;;;55.17;19.43;;;12.70;51.50;;;;;;5022032;28;46420;-79
2023/10/03 00:07:56;;;;;;;47.60;18.47;;;12.70;51.70;;;;;;5001782;28;48409;-79
2023/10/03 00:10:22;;;;;;;47.00;18.10;;;12.60;52.20;;;;;;4987147;28;46397;-80
2023/10/03 00:12:49;;;;;;;45.30;18.40;;;12.40;52.70;;;;;;5020324;28;46462;-79
2023/10/03 00:15:28;;;;;;;48.00;19.07;;;12.30;53.60;;;;;;5021415;28;46576;-80
2023/10/03 00:17:54;;;;;;;48.73;17.97;;;12.20;53.70;;;;;;5020191;28;46075;-80
2023/10/03 00:20:20;;;;;;;57.17;18.43;;;12.20;53.70;;;;;;5002848;28;46448;-79
2023/10/03 00:22:46;;;;;;;47.60;18.23;;;12.20;53.30;;;;;;5002468;28;46434;-79
2023/10/03 00:27:42;;;;;;;56.53;19.17;;;12.10;53.40;;;;;;5019376;28;46691;-80
2023/10/03 00:33:29;;;;;;;54.43;18.77;;;12.00;53.40;;;;;;5020896;28;46583;-81
2023/10/03 00:35:55;;;;;;;53.87;19.80;;;12.00;53.50;;;;;;5005494;28;46460;-80
2023/10/03 00:38:22;;;;;;;48.57;18.13;;;12.00;53.50;;;;;;5022219;28;46388;-81
2023/10/03 00:40:49;;;;;;;54.50;17.70;;;12.10;53.60;;;;;;5006780;28;46767;-81
2023/10/03 00:43:15;;;;;;;51.27;18.87;;;12.00;53.40;;;;;;5026364;28;46497;-82
2023/10/03 00:45:42;;;;;;;54.77;19.20;;;12.10;53.40;;;;;;5026447;28;46685;-81
2023/10/03 00:48:08;;;;;;;57.80;18.30;;;12.20;53.10;;;;;;5008732;28;48841;-82
2023/10/03 00:50:35;;;;;;;45.63;17.70;;;12.20;52.90;;;;;;5021591;28;46234;-79
2023/10/03 00:53:06;;;;;;;46.33;17.23;;;12.20;52.80;;;;;;5019453;28;46647;-80
2023/10/03 00:55:33;;;;;;;46.80;17.27;;;12.10;52.70;;;;;;5001963;28;46388;-80
2023/10/03 00:58:07;;;;;;;51.43;18.50;;;12.20;52.90;;;;;;5021225;28;46924;-79
2023/10/03 01:00:41;;;;;;;62.33;19.90;;;12.20;52.90;;;;;;5001849;28;46464;-79
2023/10/03 01:03:24;;;;;;;49.03;17.43;;;12.20;53.10;;;;;;5008477;28;46435;-79
2023/10/03 01:05:53;;;;;;;45.50;16.73;;;12.20;53.30;;;;;;5018728;28;46852;-78
2023/10/03 01:08:18;;;;;;;43.63;16.70;;;12.30;53.10;;;;;;5020372;28;48101;-79
2023/10/03 01:10:44;;;;;;;47.83;17.23;;;12.40;53.00;;;;;;5019163;28;46690;-79
2023/10/03 01:13:12;;;;;;;48.57;16.70;;;12.50;52.80;;;;;;5018536;28;46460;-79
2023/10/03 01:15:38;;;;;;;55.57;15.10;;;12.60;52.70;;;;;;5021407;28;46699;-78
2023/10/03 01:18:05;;;;;;;46.00;16.07;;;12.70;52.60;;;;;;5001552;28;47596;-79
2023/10/03 01:20:40;;;;;;;45.30;15.63;;;12.70;52.40;;;;;;5018805;28;46591;-78
2023/10/03 01:23:12;;;;;;;44.53;15.50;;;12.70;52.60;;;;;;5019242;28;46439;-79
2023/10/03 01:25:44;;;;;;;44.20;16.53;;;12.70;52.70;;;;;;5020093;28;46436;-79
2023/10/03 01:28:13;;;;;;;44.03;15.60;;;12.70;52.90;;;;;;5019484;28;46566;-79
2023/10/03 01:30:43;;;;;;;44.20;15.47;;;12.70;52.80;;;;;;5022567;28;45800;-78
2023/10/03 01:33:10;;;;;;;41.67;14.57;;;12.70;52.70;;;;;;5018486;28;46787;-78
2023/10/03 01:35:36;;;;;;;42.37;15.30;;;12.70;52.70;;;;;;5018769;28;46678;-80
2023/10/03 01:38:01;;;;;;;39.00;14.90;;;12.70;52.70;;;;;;5019085;28;45945;-79
2023/10/03 01:40:27;;;;;;;42.73;14.80;;;12.60;52.50;;;;;;5020700;28;46595;-78
2023/10/03 01:42:53;;;;;;;41.80;15.70;;;12.60;52.40;;;;;;5018716;28;46733;-80
2023/10/03 01:45:24;;;;;;;43.27;14.60;;;12.70;52.30;;;;;;5016943;28;45903;-80
2023/10/03 01:47:51;;;;;;;43.20;16.20;;;12.60;52.20;;;;;;5000768;28;48181;-81
2023/10/03 01:50:18;;;;;;;46.70;16.20;;;12.70;52.40;;;;;;5019185;28;46443;-79
2023/10/03 01:52:44;;;;;;;42.30;14.27;;;12.60;52.20;;;;;;5018778;28;46589;-79
2023/10/03 01:55:12;;;;;;;43.20;15.63;;;12.60;52.20;;;;;;5019194;28;46617;-80
2023/10/03 01:57:39;;;;;;;42.23;14.47;;;12.60;52.30;;;;;;5018171;28;46693;-80
2023/10/03 02:02:44;;;;;;;39.73;16.43;;;12.60;52.30;;;;;;5016797;28;46564;-81
2023/10/03 02:05:12;;;;;;;41.53;14.90;;;12.60;52.30;;;;;;5019773;28;46353;-79
2023/10/03 02:07:38;;;;;;;40.37;13.80;;;12.60;52.20;;;;;;5018323;28;46431;-80
2023/10/03 02:10:05;;;;;;;40.00;15.17;;;12.60;52.10;;;;;;5019928;28;45852;-78
2023/10/03 02:12:30;;;;;;;37.60;14.20;;;12.60;52.10;;;;;;5018608;28;46592;-81
2023/10/03 02:14:56;;;;;;;37.73;13.77;;;12.60;52.20;;;;;;5020193;28;46335;-81
2023/10/03 02:17:21;;;;;;;37.00;14.00;;;12.50;52.20;;;;;;5024660;28;46528;-80
2023/10/03 02:19:48;;;;;;;32.30;12.77;;;12.50;52.50;;;;;;5022041;28;46480;-80
2023/10/03 02:22:14;;;;;;;34.40;13.50;;;12.50;52.40;;;;;;5022642;28;46789;-81
2023/10/03 02:24:39;;;;;;;39.43;13.70;;;12.50;52.40;;;;;;5024377;28;46514;-80
2023/10/03 02:27:09;;;;;;;34.07;13.13;;;12.50;52.30;;;;;;5025978;28;46641;-80
2023/10/03 02:29:35;;;;;;;35.20;13.70;;;12.50;52.30;;;;;;5018491;28;46885;-79
2023/10/03 02:32:02;;;;;;;46.33;15.20;;;12.50;52.20;;;;;;5019922;28;46662;-79
2023/10/03 02:34:31;;;;;;;37.40;12.80;;;12.50;52.10;;;;;;5002255;28;46089;-81
2023/10/03 02:36:57;;;;;;;35.17;13.10;;;12.50;51.90;;;;;;5017967;28;46435;-79
2023/10/03 02:39:25;;;;;;;31.70;13.27;;;12.50;51.80;;;;;;5017831;28;47096;-80
2023/10/03 02:41:51;;;;;;;30.17;11.00;;;12.50;51.90;;;;;;5016936;28;46475;-79
2023/10/03 02:44:17;;;;;;;39.87;14.00;;;12.50;51.90;;;;;;5018594;28;45924;-79
2023/10/03 02:46:44;;;;;;;33.60;12.50;;;12.40;51.70;;;;;;5000346;28;46902;-79
2023/10/03 02:49:10;;;;;;;33.23;12.20;;;12.30;51.60;;;;;;5018827;28;46212;-79
2023/10/03 02:51:36;;;;;;;32.17;12.73;;;12.30;51.70;;;;;;5019983;28;46405;-81
2023/10/03 02:54:01;;;;;;;33.10;12.03;;;12.30;51.70;;;;;;5018544;28;46015;-81
2023/10/03 02:56:27;;;;;;;29.10;10.87;;;12.30;51.60;;;;;;5018853;28;46373;-79
2023/10/03 02:58:52;;;;;;;29.37;11.67;;;12.30;51.40;;;;;;5017288;28;46500;-79
2023/10/03 03:01:21;;;;;;;27.80;11.60;;;12.30;51.30;;;;;;5018497;28;46697;-79
2023/10/03 03:03:48;;;;;;;34.00;12.27;;;12.40;51.30;;;;;;5018717;28;46492;-79
2023/10/03 03:06:14;;;;;;;30.57;10.93;;;12.30;51.10;;;;;;5017598;28;47411;-78
2023/10/03 03:08:41;;;;;;;30.77;12.20;;;12.40;51.10;;;;;;5018419;28;46365;-79
2023/10/03 03:11:08;;;;;;;28.63;10.93;;;12.40;51.10;;;;;;5020195;28;46313;-78
2023/10/03 03:13:37;;;;;;;38.67;12.33;;;12.40;51.10;;;;;;5017242;28;46668;-79
2023/10/03 03:16:04;;;;;;;32.27;13.10;;;12.40;51.00;;;;;;5016496;28;46740;-79
2023/10/03 03:18:31;;;;;;;30.77;11.23;;;12.30;51.10;;;;;;5000522;28;46504;-79
2023/10/03 03:20:58;;;;;;;28.83;10.63;;;12.30;52.20;;;;;;5019059;28;45816;-79
2023/10/03 03:23:36;;;;;;;32.43;12.40;;;12.30;51.00;;;;;;5001516;28;46456;-78
2023/10/03 03:26:36;;;;;;;32.30;11.30;;;12.20;51.00;;;;;;5020758;28;49327;-79
2023/10/03 03:28:49;;;;;;;31.90;11.77;;;12.20;51.00;;;;;;5020012;28;46462;-80
2023/10/03 03:31:22;;;;;;;35.17;12.07;;;12.20;51.00;;;;;;5003334;28;46474;-78
2023/10/03 03:33:52;;;;;;;28.60;11.07;;;12.20;50.90;;;;;;5019620;28;46413;-79
2023/10/03 03:36:22;;;;;;;29.60;10.23;;;12.20;50.70;;;;;;5021509;28;46698;-79
2023/10/03 03:38:49;;;;;;;29.10;10.80;;;12.10;50.70;;;;;;5002826;28;46617;-78
2023/10/03 03:41:15;;;;;;;31.27;11.30;;;12.10;50.80;;;;;;5001469;28;46501;-79
2023/10/03 03:43:42;;;;;;;32.53;12.40;;;12.20;50.80;;;;;;5020656;28;46375;-79
2023/10/03 03:46:09;;;;;;;31.30;11.20;;;12.20;50.70;;;;;;5003261;28;48345;-79
2023/10/03 03:48:36;;;;;;;36.67;12.20;;;12.20;50.50;;;;;;5022117;28;46536;-80
2023/10/03 03:51:02;;;;;;;28.37;11.10;;;12.20;50.50;;;;;;5004315;28;46464;-79
2023/10/03 03:53:29;;;;;;;30.80;11.57;;;12.20;50.40;;;;;;5022441;28;46492;-82
2023/10/03 03:55:55;;;;;;;26.67;9.60;;;12.20;50.30;;;;;;5021020;28;46510;-79
2023/10/03 03:58:21;;;;;;;26.50;11.10;;;12.10;50.50;;;;;;5021459;28;46672;-81
2023/10/03 04:00:52;;;;;;;26.27;10.30;;;12.10;50.60;;;;;;5022616;28;46513;-80
2023/10/03 04:03:19;;;;;;;24.37;10.03;;;12.10;50.50;;;;;;5023065;28;45979;-80
2023/10/03 04:05:46;;;;;;;31.00;11.50;;;12.00;50.40;;;;;;5024739;28;47080;-78
2023/10/03 04:08:12;;;;;;;31.00;11.27;;;12.00;50.40;;;;;;5026513;28;45883;-82
2023/10/03 04:10:38;;;;;;;33.30;11.60;;;12.10;50.50;;;;;;5026926;28;46527;-81
2023/10/03 04:13:16;;;;;;;33.37;11.90;;;12.10;50.50;;;;;;5012134;28;45903;-79
2023/10/03 04:15:44;;;;;;;28.23;10.90;;;12.10;50.50;;;;;;5020049;28;46749;-79
2023/10/03 04:18:10;;;;;;;30.90;11.33;;;12.10;50.20;;;;;;5020485;28;46851;-79
2023/10/03 04:20:39;;;;;;;29.20;11.00;;;12.10;50.10;;;;;;5020264;28;46435;-79
2023/10/03 04:23:06;;;;;;;27.57;9.60;;;12.10;50.10;;;;;;5019833;28;46704;-79
2023/10/03 04:25:33;;;;;;;34.97;11.77;;;12.10;50.10;;;;;;5020673;28;46437;-79
2023/10/03 04:28:00;;;;;;;26.77;9.47;;;12.10;50.10;;;;;;5020174;28;46443;-79
2023/10/03 04:30:26;;;;;;;30.63;11.30;;;12.10;50.00;;;;;;5003867;28;46671;-80
2023/10/03 04:32:55;;;;;;;29.03;10.60;;;12.10;50.10;;;;;;5020630;28;47309;-79
2023/10/03 04:35:22;;;;;;;31.23;11.40;;;12.10;50.10;;;;;;5019430;28;46638;-79
2023/10/03 04:37:52;;;;;;;25.73;10.10;;;12.10;50.00;;;;;;4998414;28;46607;-81
2023/10/03 04:40:22;;;;;;;31.73;10.60;;;12.10;50.00;;;;;;5025190;28;46452;-79
2023/10/03 04:42:52;;;;;;;30.53;11.23;;;12.10;49.90;;;;;;5023896;28;46300;-80
2023/10/03 04:45:21;;;;;;;28.73;9.57;;;12.10;49.80;;;;;;5022687;28;46987;-79
2023/10/03 04:47:48;;;;;;;27.07;10.10;;;12.20;49.60;;;;;;5022483;28;46503;-81
2023/10/03 04:50:17;;;;;;;30.40;11.10;;;12.20;49.50;;;;;;5024321;28;46668;-80
2023/10/03 04:52:47;;;;;;;21.87;8.93;;;12.20;49.40;;;;;;5008520;28;46493;-80
2023/10/03 04:55:16;;;;;;;25.50;8.90;;;12.30;49.50;;;;;;5020648;28;48396;-78
2023/10/03 04:57:46;;;;;;;26.37;10.20;;;12.30;49.30;;;;;;5022049;28;46686;-77
2023/10/03 05:00:15;;;;;;;24.80;10.00;;;12.30;49.10;;;;;;5020488;28;46377;-80
2023/10/03 05:02:46;;;;;;;25.50;9.87;;;12.30;49.00;;;;;;5018897;28;46655;-78
2023/10/03 05:05:12;;;;;;;29.70;10.07;;;12.30;48.80;;;;;;5021552;28;47462;-78
2023/10/03 05:07:37;;;;;;;27.27;9.83;;;12.30;48.90;;;;;;5019396;28;46776;-80
2023/10/03 05:10:03;;;;;;;21.00;8.90;;;12.40;48.90;;;;;;5019649;28;46420;-80
2023/10/03 05:12:29;;;;;;;22.70;8.90;;;12.40;48.80;;;;;;4993354;28;46416;-80
2023/10/03 05:14:55;;;;;;;22.27;8.53;;;12.30;48.80;;;;;;5019625;28;47633;-79
2023/10/03 05:17:20;;;;;;;32.20;9.27;;;12.30;49.10;;;;;;5018475;28;46392;-79
2023/10/03 05:19:46;;;;;;;20.73;7.97;;;12.20;49.10;;;;;;5019700;28;46846;-79
2023/10/03 05:22:13;;;;;;;26.47;7.87;;;12.20;49.30;;;;;;5020350;28;46338;-78
2023/10/03 05:24:38;;;;;;;21.37;7.47;;;12.20;49.40;;;;;;5003277;28;49066;-79
2023/10/03 05:27:04;;;;;;;24.70;8.70;;;12.20;49.40;;;;;;5020040;28;46491;-79
2023/10/03 05:29:30;;;;;;;22.83;8.43;;;12.20;49.30;;;;;;5019715;28;46769;-80
2023/10/03 05:31:55;;;;;;;21.33;8.57;;;12.30;49.10;;;;;;5001313;28;46390;-79
2023/10/03 05:34:21;;;;;;;18.57;7.97;;;12.50;48.80;;;;;;5019435;28;48397;-78
2023/10/03 05:36:48;;;;;;;24.53;8.20;;;12.70;48.30;;;;;;5018718;28;46434;-78
2023/10/03 05:39:15;;;;;;;22.30;8.17;;;12.90;47.60;;;;;;5001215;28;46517;-79
2023/10/03 05:41:41;;;;;;;20.07;8.43;;;13.00;46.90;;;;;;5020087;28;45911;-80
2023/10/03 05:44:11;;;;;;;18.07;7.47;;;13.20;46.60;;;;;;5019790;28;46172;-81
2023/10/03 05:46:42;;;;;;;28.10;8.80;;;13.40;46.10;;;;;;5020183;28;46531;-79
2023/10/03 05:49:09;;;;;;;22.10;8.00;;;13.60;45.70;;;;;;5021509;28;46449;-80
2023/10/03 05:51:35;;;;;;;24.07;9.03;;;13.80;45.40;;;;;;5022733;28;46527;-80
2023/10/03 05:54:02;;;;;;;21.40;7.73;;;14.00;45.10;;;;;;5023050;28;47309;-79
2023/10/03 05:56:28;;;;;;;18.77;8.07;;;14.20;44.70;;;;;;5010929;28;45827;-81
2023/10/03 05:58:53;;;;;;;20.23;7.83;;;14.40;44.40;;;;;;5026268;28;46487;-82
2023/10/03 06:01:19;;;;;;;22.40;8.03;;;14.60;44.40;;;;;;5020833;28;46175;-79
2023/10/03 06:03:44;;;;;;;23.53;8.80;;;14.70;44.20;;;;;;5019650;28;46598;-78
2023/10/03 06:06:10;;;;;;;26.47;9.40;;;14.90;44.00;;;;;;5000092;28;46401;-79
2023/10/03 06:08:36;;;;;;;22.33;8.73;;;15.10;43.90;;;;;;5018909;28;46909;-79
2023/10/03 06:11:05;;;;;;;20.63;7.80;;;15.20;43.80;;;;;;5000719;28;46333;-79
2023/10/03 06:13:31;;;;;;;23.03;7.77;;;15.30;43.30;;;;;;5017592;28;46745;-79
2023/10/03 06:16:00;;;;;;;25.43;9.20;;;15.50;43.50;;;;;;5018711;28;46488;-78
2023/10/03 06:18:29;;;;;;;17.10;8.33;;;15.60;43.60;;;;;;5019650;28;46427;-80
2023/10/03 06:20:57;;;;;;;20.50;8.90;;;15.70;43.60;;;;;;4999678;28;46411;-79
2023/10/03 06:23:23;;;;;;;19.07;8.20;;;15.90;43.90;;;;;;5018885;28;46512;-80
2023/10/03 06:25:48;;;;;;;18.27;8.37;;;16.00;43.20;;;;;;5019263;28;46341;-80
2023/10/03 06:28:14;;;;;;;20.53;8.50;;;16.10;43.10;;;;;;5019808;28;46803;-79
2023/10/03 06:30:39;;;;;;;21.40;8.67;;;16.20;42.90;;;;;;5018581;28;46663;-79
2023/10/03 06:33:07;;;;;;;20.00;8.33;;;16.30;42.80;;;;;;4999334;28;49099;-79
2023/10/03 06:35:32;;;;;;;21.53;8.07;;;16.40;42.70;;;;;;5020121;28;46422;-80
2023/10/03 06:37:58;;;;;;;20.73;7.73;;;16.40;42.70;;;;;;5004562;28;46818;-79
2023/10/03 06:40:23;;;;;;;21.90;9.33;;;16.40;42.70;;;;;;5018909;28;46477;-79
2023/10/03 06:42:49;;;;;;;21.43;8.77;;;16.40;42.80;;;;;;5021770;28;46601;-80
2023/10/03 06:45:15;;;;;;;20.80;9.13;;;16.50;42.70;;;;;;5018666;28;46733;-80
2023/10/03 06:47:41;;;;;;;22.50;8.90;;;16.70;42.50;;;;;;5000226;28;46396;-78
2023/10/03 06:50:07;;;;;;;18.03;8.30;;;16.90;42.30;;;;;;5017993;28;46411;-79
2023/10/03 06:52:35;;;;;;;23.30;9.07;;;16.90;42.00;;;;;;4999871;28;48748;-79
2023/10/03 06:55:03;;;;;;;28.83;8.50;;;17.10;41.70;;;;;;4999802;28;47920;-79
2023/10/03 06:57:29;;;;;;;19.80;8.20;;;17.30;41.30;;;;;;5019409;28;45966;-80
2023/10/03 06:59:54;;;;;;;16.20;8.00;;;17.50;40.70;;;;;;5021761;28;46714;-79
2023/10/03 07:02:21;;;;;;;23.50;8.93;;;17.70;40.00;;;;;;5021138;28;46622;-79
2023/10/03 07:04:46;;;;;;;16.07;7.80;;;17.90;39.40;;;;;;5021331;28;46447;-79
2023/10/03 07:07:12;;;;;;;16.77;7.23;;;18.10;38.90;;;;;;5021826;28;46245;-79
2023/10/03 07:09:38;;;;;;;16.53;7.57;;;18.30;38.50;;;;;;5022066;28;46485;-78
2023/10/03 07:12:07;;;;;;;16.40;7.90;;;18.40;38.10;;;;;;5021454;28;46688;-80
2023/10/03 07:14:33;;;;;;;21.70;7.50;;;18.50;37.60;;;;;;5005069;28;46143;-80
2023/10/03 07:16:59;;;;;;;18.70;7.70;;;18.70;37.20;;;;;;5022489;28;47165;-81
2023/10/03 07:19:24;;;;;;;18.90;7.73;;;18.80;36.70;;;;;;5003617;28;46705;-79
2023/10/03 07:21:53;;;;;;;22.70;9.07;;;18.90;36.30;;;;;;5021720;28;46389;-80
2023/10/03 07:24:20;;;;;;;17.50;8.13;;;19.10;35.90;;;;;;5021064;28;46505;-79
2023/10/03 07:26:46;;;;;;;19.43;8.53;;;19.20;35.50;;;;;;5021957;28;45820;-80
2023/10/03 07:29:11;;;;;;;18.17;8.90;;;19.30;34.80;;;;;;5023056;28;45824;-81
2023/10/03 07:31:37;;;;;;;23.83;8.47;;;19.50;33.80;;;;;;5005218;28;49412;-80
2023/10/03 07:34:02;;;;;;;15.67;7.97;;;19.70;33.80;;;;;;5005698;28;46098;-80
2023/10/03 07:36:28;;;;;;;18.43;8.37;;;19.90;33.80;;;;;;5024173;28;46461;-78
2023/10/03 07:38:54;;;;;;;15.37;7.70;;;20.00;32.80;;;;;;5024103;28;47770;-82
2023/10/03 07:41:21;;;;;;;17.47;6.93;;;20.10;32.20;;;;;;5027104;28;46010;-81
2023/10/03 07:43:52;;;;;;;14.83;7.17;;;20.30;31.80;;;;;;5026678;28;46489;-77
2023/10/03 07:46:24;;;;;;;17.30;8.07;;;20.40;31.50;;;;;;5027817;28;46640;-79
2023/10/03 07:48:52;;;;;;;18.20;7.30;;;20.50;30.50;;;;;;5020631;28;47004;-79
2023/10/03 07:51:19;;;;;;;17.57;7.80;;;20.60;30.00;;;;;;5021806;28;46472;-80
2023/10/03 07:53:46;;;;;;;15.53;7.47;;;20.80;29.70;;;;;;5023848;28;46626;-79
2023/10/03 07:56:17;;;;;;;15.43;7.27;;;20.90;29.50;;;;;;5002688;28;46397;-80
2023/10/03 07:58:44;;;;;;;18.77;7.90;;;21.00;29.10;;;;;;5020544;28;46482;-79
2023/10/03 08:01:13;;;;;;;18.17;7.60;;;21.20;28.80;;;;;;5020868;28;46508;-79
2023/10/03 08:03:39;;;;;;;14.13;6.87;;;21.40;28.40;;;;;;5021600;28;46555;-78
2023/10/03 08:06:04;;;;;;;13.93;6.00;;;21.40;27.80;;;;;;5020922;28;46369;-78
2023/10/03 08:08:30;;;;;;;24.53;6.87;;;21.50;27.50;;;;;;5021250;28;45987;-81
2023/10/03 08:10:58;;;;;;;16.47;7.27;;;21.60;27.10;;;;;;5021418;28;46522;-80
2023/10/03 08:13:23;;;;;;;18.50;7.97;;;21.80;26.80;;;;;;5021875;28;46440;-80
2023/10/03 08:15:49;;;;;;;15.37;6.90;;;21.90;26.50;;;;;;5021293;28;46498;-78
2023/10/03 08:18:17;;;;;;;13.53;6.40;;;22.00;25.90;;;;;;5002980;28;46472;-81
2023/10/03 08:20:44;;;;;;;11.50;5.80;;;22.10;25.50;;;;;;5026652;28;46644;-80
2023/10/03 08:23:09;;;;;;;16.83;6.80;;;22.10;24.30;;;;;;5020933;28;46591;-79
2023/10/03 08:25:35;;;;;;;20.17;7.77;;;22.10;23.90;;;;;;5022397;28;46432;-79
2023/10/03 08:28:01;;;;;;;15.93;6.83;;;22.20;23.90;;;;;;5022630;28;46362;-77
2023/10/03 08:30:29;;;;;;;17.33;7.07;;;22.20;22.70;;;;;;5002395;28;48370;-78
2023/10/03 08:32:56;;;;;;;18.90;7.30;;;22.30;22.30;;;;;;5020005;28;46503;-79
2023/10/03 08:35:34;;;;;;;13.60;6.60;;;22.40;21.90;;;;;;5002454;28;47487;-80
2023/10/03 08:38:07;;;;;;;19.57;7.50;;;22.60;21.40;;;;;;5021096;28;46460;-79
2023/10/03 08:40:44;;;;;;;15.30;7.00;;;22.70;21.00;;;;;;5003053;28;47576;-79
2023/10/03 08:43:11;;;;;;;22.37;7.03;;;22.80;20.40;;;;;;5018418;28;46503;-79
2023/10/03 08:45:42;;;;;;;14.83;6.87;;;22.90;20.20;;;;;;5019751;28;46293;-79
2023/10/03 08:48:09;;;;;;;16.90;6.90;;;23.00;19.20;;;;;;5002925;28;46413;-78
2023/10/03 08:50:43;;;;;;;14.00;6.40;;;23.10;18.90;;;;;;5001682;28;47445;-79
2023/10/03 08:53:27;;;;;;;15.40;7.03;;;23.20;18.60;;;;;;5019634;28;47001;-78
2023/10/03 08:55:58;;;;;;;11.53;6.10;;;23.30;18.30;;;;;;5023855;28;46461;-79
2023/10/03 08:58:27;;;;;;;15.23;6.90;;;23.50;17.80;;;;;;5010922;28;46365;-80
2023/10/03 09:01:04;;;;;;;15.13;7.20;;;23.50;17.30;;;;;;5020479;28;46531;-79
2023/10/03 09:03:47;;;;;;;14.30;6.27;;;23.70;16.90;;;;;;5003559;28;46718;-80
2023/10/03 09:06:19;;;;;;;16.73;6.93;;;23.70;15.50;;;;;;5002773;28;46354;-79
2023/10/03 09:08:47;;;;;;;16.27;6.87;;;23.80;15.90;;;;;;5019343;28;47437;-78
2023/10/03 09:11:13;;;;;;;16.00;6.57;;;23.90;15.00;;;;;;5019459;28;47518;-79
2023/10/03 09:13:40;;;;;;;16.00;6.77;;;24.00;14.80;;;;;;5020584;28;46499;-78
2023/10/03 09:16:08;;;;;;;12.03;6.30;;;24.10;14.20;;;;;;5020210;28;46934;-79
2023/10/03 09:18:42;;;;;;;13.87;6.17;;;24.20;14.30;;;;;;5002744;28;46684;-79
2023/10/03 09:21:23;;;;;;;26.33;6.30;;;24.20;14.30;;;;;;4995750;28;47988;-80
2023/10/03 09:24:09;;;;;;;14.83;6.10;;;24.30;13.40;;;;;;5020494;28;46722;-79
2023/10/03 09:26:51;;;;;;;12.63;6.23;;;24.20;12.00;;;;;;5000802;28;46418;-79
2023/10/03 09:29:31;;;;;;;12.77;5.47;;;24.30;12.40;;;;;;5024787;28;46396;-82
2023/10/03 09:31:59;;;;;;;16.33;6.07;;;24.30;11.80;;;;;;5029210;28;46627;-79
2023/10/03 09:34:32;;;;;;;12.50;6.50;;;24.40;11.90;;;;;;5020659;28;46408;-79
2023/10/03 09:37:04;;;;;;;15.93;6.17;;;24.40;10.70;;;;;;5002106;28;46743;-80
2023/10/03 09:39:31;;;;;;;12.50;6.73;;;24.50;11.00;;;;;;5019848;28;46385;-79
2023/10/03 09:41:58;;;;;;;13.60;6.03;;;24.50;10.70;;;;;;5018884;28;46426;-78
2023/10/03 09:44:30;;;;;;;10.70;5.43;;;24.60;10.10;;;;;;5019314;28;46461;-81
2023/10/03 09:47:09;;;;;;;11.63;5.03;;;24.60;9.30;;;;;;5017023;28;46541;-80
2023/10/03 09:49:38;;;;;;;12.40;6.10;;;24.50;8.60;;;;;;5021825;28;46486;-80
2023/10/03 09:52:22;;;;;;;12.33;5.63;;;24.40;7.50;;;;;;5022847;28;47441;-79
2023/10/03 09:54:53;;;;;;;12.83;5.80;;;24.50;8.00;;;;;;5001599;28;46655;-80
2023/10/03 09:57:21;;;;;;;14.13;5.90;;;24.60;8.50;;;;;;5018861;28;46624;-80
2023/10/03 09:59:48;;;;;;;12.10;6.30;;;24.70;8.80;;;;;;4990225;28;46444;-79
2023/10/03 10:02:16;;;;;;;15.37;6.43;;;24.80;9.20;;;;;;5018998;28;46516;-79
2023/10/03 10:04:45;;;;;;;15.20;6.70;;;25.00;10.00;;;;;;5002061;28;46420;-79
2023/10/03 10:07:27;;;;;;;12.40;5.83;;;25.10;8.90;;;;;;5009060;28;46593;-82
2023/10/03 10:10:07;;;;;;;11.53;5.90;;;25.20;8.90;;;;;;5002222;28;46482;-80
2023/10/03 10:12:37;;;;;;;11.20;5.53;;;25.30;8.50;;;;;;5020671;28;46989;-79
2023/10/03 10:17:55;;;;;;;13.20;5.77;;;25.40;8.10;;;;;;5017049;28;46906;-78
2023/10/03 10:20:37;;;;;;;10.90;5.60;;;25.40;7.90;;;;;;5019496;28;46491;-79
2023/10/03 10:23:04;;;;;;;10.80;5.30;;;25.60;8.00;;;;;;5018515;28;47042;-80
2023/10/03 10:25:43;;;;;;;10.37;5.57;;;25.70;7.40;;;;;;5003107;28;46702;-80
2023/10/03 10:28:31;;;;;;;17.60;5.83;;;25.70;7.10;;;;;;5020896;28;46459;-79
2023/10/03 10:31:21;;;;;;;16.40;5.63;;;25.80;6.50;;;;;;5019850;28;46666;-79
2023/10/03 10:33:49;;;;;;;10.73;4.80;;;25.70;3.80;;;;;;5026023;28;46506;-80
2023/10/03 10:36:18;;;;;;;14.20;5.67;;;25.70;4.50;;;;;;5007461;28;46765;-78
2023/10/03 10:38:44;;;;;;;13.20;5.80;;;25.80;4.90;;;;;;5026497;28;46512;-79
2023/10/03 10:41:17;;;;;;;10.53;5.60;;;25.90;4.80;;;;;;5027854;28;45901;-79
2023/10/03 10:44:08;;;;;;;12.80;5.60;;;26.00;4.50;;;;;;5024994;28;48359;-78
2023/10/03 10:46:44;;;;;;;18.30;5.30;;;26.30;4.20;;;;;;5028141;28;46424;-81
2023/10/03 10:49:31;;;;;;;13.27;5.70;;;26.60;4.30;;;;;;5026885;28;46460;-80
2023/10/03 10:52:01;;;;;;;9.80;5.23;;;26.90;4.50;;;;;;5027269;28;47010;-79
2023/10/03 10:54:27;;;;;;;10.67;5.00;;;26.80;4.30;;;;;;5027648;28;46365;-80
2023/10/03 10:57:07;;;;;;;14.83;5.90;;;26.90;4.30;;;;;;5016114;28;46428;-80
2023/10/03 10:59:39;;;;;;;11.70;5.27;;;27.00;2.40;;;;;;5027891;28;46642;-80
2023/10/03 11:02:22;;;;;;;19.00;5.60;;;26.70;1.60;;;;;;5028254;28;46665;-78
2023/10/03 11:04:55;;;;;;;19.00;6.20;;;26.60;1.80;;;;;;5030213;28;46610;-81
2023/10/03 11:07:22;;;;;;;12.23;4.87;;;26.60;1.90;;;;;;5028432;28;46495;-79
2023/10/03 11:09:48;;;;;;;10.30;4.80;;;26.50;1.40;;;;;;5031668;28;46381;-81
2023/10/03 11:12:25;;;;;;;13.63;6.03;;;26.40;1.40;;;;;;5028499;28;46896;-79
2023/10/03 11:14:52;;;;;;;10.70;5.07;;;26.30;1.50;;;;;;5013322;28;48053;-82
2023/10/03 11:17:19;;;;;;;10.10;5.13;;;26.10;1.50;;;;;;5031490;28;46734;-82
2023/10/03 11:19:46;;;;;;;13.63;5.60;;;26.20;1.90;;;;;;5031689;28;46701;-79
2023/10/03 11:22:13;;;;;;;13.80;6.00;;;26.30;1.70;;;;;;5006395;28;46358;-80
2023/10/03 11:24:39;;;;;;;12.30;5.93;;;26.50;2.10;;;;;;5025115;28;46484;-79
2023/10/03 11:27:05;;;;;;;14.67;5.77;;;26.70;2.10;;;;;;5024143;28;46742;-81
2023/10/03 11:29:46;;;;;;;10.13;5.07;;;26.70;1.80;;;;;;5025170;28;46508;-78
2023/10/03 11:32:25;;;;;;;10.20;4.97;;;26.50;1.00;;;;;;5006596;28;46590;-79
2023/10/03 11:34:52;;;;;;;9.97;4.67;;;26.60;1.20;;;;;;5025321;28;46488;-78
2023/10/03 11:37:36;;;;;;;12.67;4.53;;;26.80;1.50;;;;;;5025518;28;46276;-78
2023/10/03 11:40:14;;;;;;;17.93;5.00;;;26.80;1.00;;;;;;4997648;28;46482;-79
2023/10/03 11:42:51;;;;;;;11.00;5.30;;;26.60;1.00;;;;;;5007385;28;46822;-77
2023/10/03 11:45:22;;;;;;;13.30;5.87;;;26.50;1.00;;;;;;5019385;28;46375;-77
2023/10/03 11:48:03;;;;;;;13.50;5.80;;;26.70;1.20;;;;;;5025436;28;46473;-79
2023/10/03 11:50:32;;;;;;;10.40;4.80;;;26.90;1.00;;;;;;5022420;28;46545;-79
2023/10/03 11:52:57;;;;;;;10.77;5.13;;;26.90;1.00;;;;;;5015275;28;46899;-77
2023/10/03 11:55:24;;;;;;;11.10;4.70;;;26.80;1.00;;;;;;5022743;28;46668;-78
2023/10/03 11:57:51;;;;;;;12.10;5.43;;;26.60;1.00;;;;;;5025621;28;46601;-82
2023/10/03 12:00:16;;;;;;;10.73;4.70;;;26.60;1.00;;;;;;5023141;28;46381;-80
2023/10/03 12:02:46;;;;;;;10.67;5.03;;;26.50;1.00;;;;;;5022958;28;46353;-79
2023/10/03 12:05:12;;;;;;;9.63;5.60;;;26.50;1.10;;;;;;5004040;28;47350;-80
2023/10/03 12:07:39;;;;;;;14.07;5.13;;;26.50;1.30;;;;;;5023023;28;46526;-79
2023/10/03 12:10:10;;;;;;;15.50;5.37;;;26.60;1.40;;;;;;5024190;28;46415;-80
2023/10/03 12:12:37;;;;;;;10.00;4.90;;;26.60;1.20;;;;;;5022326;28;45856;-80
2023/10/03 12:15:03;;;;;;;12.93;4.97;;;26.70;1.00;;;;;;5003983;28;48340;-81
2023/10/03 12:17:28;;;;;;;12.27;4.40;;;26.70;1.00;;;;;;5021292;28;46572;-82
2023/10/03 12:19:54;;;;;;;7.33;4.03;;;26.70;1.00;;;;;;5024667;28;46670;-80
2023/10/03 12:22:20;;;;;;;17.10;4.87;;;26.70;1.00;;;;;;5010199;28;46562;-80
2023/10/03 12:24:45;;;;;;;11.90;5.20;;;26.70;1.00;;;;;;5008781;28;48074;-79
2023/10/03 12:27:11;;;;;;;15.17;5.00;;;26.80;1.00;;;;;;5022803;28;46424;-78
2023/10/03 12:29:37;;;;;;;13.93;5.10;;;26.90;1.00;;;;;;5022941;28;46370;-77
2023/10/03 12:32:03;;;;;;;9.60;4.60;;;26.90;1.00;;;;;;5023364;28;46559;-79
2023/10/03 12:34:30;;;;;;;10.33;4.20;;;26.90;1.00;;;;;;5024818;28;47470;-80
2023/10/03 12:36:55;;;;;;;15.83;5.40;;;26.90;1.00;;;;;;5025446;28;46382;-82
2023/10/03 12:39:24;;;;;;;9.40;4.87;;;27.00;1.50;;;;;;5006202;28;46787;-80
2023/10/03 12:41:50;;;;;;;11.57;4.90;;;27.00;1.00;;;;;;5024830;28;46392;-80
2023/10/03 12:44:16;;;;;;;15.60;4.97;;;27.00;1.00;;;;;;5024166;28;46426;-80
2023/10/03 12:46:42;;;;;;;17.33;5.90;;;26.80;1.00;;;;;;5006572;28;46707;-78
2023/10/03 12:49:08;;;;;;;13.70;6.00;;;26.80;1.10;;;;;;5007699;28;46337;-80
2023/10/03 12:51:33;;;;;;;17.07;5.30;;;26.70;1.20;;;;;;5024314;28;46322;-80
2023/10/03 12:53:59;;;;;;;20.43;5.00;;;26.50;1.40;;;;;;5025349;28;46412;-79